sensor_id;sensor_type;location;lat;lon;timestamp;P1;durP1;ratioP1;P2;durP2;ratioP2
23044;SDS011;11690;51.716;23.066;2023-06-10T00:02:03;3.78;;;3.47;;
23044;SDS011;11690;51.716;23.066;2023-06-10T00:04:30;4.75;;;3.65;;
23044;SDS011;11690;51.716;23.066;2023-06-10T00:06:57;5.30;;;3.83;;
23044;SDS011;11690;51.716;23.066;2023-06-10T00:09:24;3.90;;;3.28;;
23044;SDS011;11690;51.716;23.066;2023-06-10T00:11:52;5.88;;;4.00;;
23044;SDS011;11690;51.716;23.066;2023-06-10T00:14:19;6.22;;;4.15;;
23044;SDS011;11690;51.716;23.066;2023-06-10T00:16:46;7.65;;;4.13;;
23044;SDS011;11690;51.716;23.066;2023-06-10T00:19:13;6.13;;;3.95;;
23044;SDS011;11690;51.716;23.066;2023-06-10T00:21:42;4.78;;;3.60;;
23044;SDS011;11690;51.716;23.066;2023-06-10T00:24:11;4.70;;;3.45;;
23044;SDS011;11690;51.716;23.066;2023-06-10T00:26:41;3.70;;;3.25;;
23044;SDS011;11690;51.716;23.066;2023-06-10T00:29:09;4.85;;;3.97;;
23044;SDS011;11690;51.716;23.066;2023-06-10T00:31:37;5.10;;;3.38;;
23044;SDS011;11690;51.716;23.066;2023-06-10T00:34:08;4.97;;;3.72;;
23044;SDS011;11690;51.716;23.066;2023-06-10T00:36:35;6.05;;;4.07;;
23044;SDS011;11690;51.716;23.066;2023-06-10T00:39:02;4.15;;;3.55;;
23044;SDS011;11690;51.716;23.066;2023-06-10T00:41:31;4.18;;;3.50;;
23044;SDS011;11690;51.716;23.066;2023-06-10T00:44:00;4.13;;;3.60;;
23044;SDS011;11690;51.716;23.066;2023-06-10T00:46:28;4.53;;;3.97;;
23044;SDS011;11690;51.716;23.066;2023-06-10T00:48:55;4.40;;;3.45;;
23044;SDS011;11690;51.716;23.066;2023-06-10T00:51:22;4.72;;;3.70;;
23044;SDS011;11690;51.716;23.066;2023-06-10T00:53:49;4.85;;;3.65;;
23044;SDS011;11690;51.716;23.066;2023-06-10T00:56:17;4.43;;;3.42;;
23044;SDS011;11690;51.716;23.066;2023-06-10T00:58:44;3.90;;;3.08;;
23044;SDS011;11690;51.716;23.066;2023-06-10T01:01:11;5.15;;;3.65;;
23044;SDS011;11690;51.716;23.066;2023-06-10T01:03:39;3.97;;;2.90;;
23044;SDS011;11690;51.716;23.066;2023-06-10T01:09:02;4.80;;;3.28;;
23044;SDS011;11690;51.716;23.066;2023-06-10T01:11:57;6.35;;;3.60;;
23044;SDS011;11690;51.716;23.066;2023-06-10T01:14:26;4.38;;;3.28;;
23044;SDS011;11690;51.716;23.066;2023-06-10T01:16:54;3.78;;;3.28;;
23044;SDS011;11690;51.716;23.066;2023-06-10T01:19:21;4.40;;;3.50;;
23044;SDS011;11690;51.716;23.066;2023-06-10T01:21:51;4.60;;;3.40;;
23044;SDS011;11690;51.716;23.066;2023-06-10T01:24:18;4.85;;;3.47;;
23044;SDS011;11690;51.716;23.066;2023-06-10T01:26:47;4.90;;;3.08;;
23044;SDS011;11690;51.716;23.066;2023-06-10T01:29:25;4.60;;;3.53;;
23044;SDS011;11690;51.716;23.066;2023-06-10T01:32:04;4.88;;;3.50;;
23044;SDS011;11690;51.716;23.066;2023-06-10T01:34:35;4.72;;;3.55;;
23044;SDS011;11690;51.716;23.066;2023-06-10T01:37:03;4.35;;;3.85;;
23044;SDS011;11690;51.716;23.066;2023-06-10T01:39:30;4.50;;;3.75;;
23044;SDS011;11690;51.716;23.066;2023-06-10T01:41:59;5.13;;;4.25;;
23044;SDS011;11690;51.716;23.066;2023-06-10T01:44:26;6.50;;;4.05;;
23044;SDS011;11690;51.716;23.066;2023-06-10T01:46:53;6.85;;;4.65;;
23044;SDS011;11690;51.716;23.066;2023-06-10T01:49:21;5.93;;;4.20;;
23044;SDS011;11690;51.716;23.066;2023-06-10T01:51:51;4.13;;;3.70;;
23044;SDS011;11690;51.716;23.066;2023-06-10T01:54:18;5.57;;;4.55;;
23044;SDS011;11690;51.716;23.066;2023-06-10T01:56:46;5.22;;;4.32;;
23044;SDS011;11690;51.716;23.066;2023-06-10T01:59:12;5.43;;;4.60;;
23044;SDS011;11690;51.716;23.066;2023-06-10T02:01:40;5.57;;;4.47;;
23044;SDS011;11690;51.716;23.066;2023-06-10T02:04:09;5.88;;;4.68;;
23044;SDS011;11690;51.716;23.066;2023-06-10T02:06:36;5.45;;;4.45;;
23044;SDS011;11690;51.716;23.066;2023-06-10T02:09:04;6.38;;;4.65;;
23044;SDS011;11690;51.716;23.066;2023-06-10T02:11:31;4.97;;;4.47;;
23044;SDS011;11690;51.716;23.066;2023-06-10T02:13:58;6.53;;;4.70;;
23044;SDS011;11690;51.716;23.066;2023-06-10T02:16:26;5.53;;;4.25;;
23044;SDS011;11690;51.716;23.066;2023-06-10T02:18:54;5.32;;;4.80;;
23044;SDS011;11690;51.716;23.066;2023-06-10T02:21:21;6.35;;;4.55;;
23044;SDS011;11690;51.716;23.066;2023-06-10T02:23:48;5.97;;;4.90;;
23044;SDS011;11690;51.716;23.066;2023-06-10T02:26:16;6.13;;;4.55;;
23044;SDS011;11690;51.716;23.066;2023-06-10T02:28:43;5.47;;;4.57;;
23044;SDS011;11690;51.716;23.066;2023-06-10T02:31:12;6.65;;;4.60;;
23044;SDS011;11690;51.716;23.066;2023-06-10T02:33:40;5.72;;;4.20;;
23044;SDS011;11690;51.716;23.066;2023-06-10T02:36:08;4.88;;;3.80;;
23044;SDS011;11690;51.716;23.066;2023-06-10T02:38:35;4.97;;;3.70;;
23044;SDS011;11690;51.716;23.066;2023-06-10T02:41:02;4.05;;;3.40;;
23044;SDS011;11690;51.716;23.066;2023-06-10T02:43:29;5.30;;;3.65;;
23044;SDS011;11690;51.716;23.066;2023-06-10T02:45:56;4.20;;;3.17;;
23044;SDS011;11690;51.716;23.066;2023-06-10T02:48:24;3.72;;;3.03;;
23044;SDS011;11690;51.716;23.066;2023-06-10T02:50:51;5.10;;;3.80;;
23044;SDS011;11690;51.716;23.066;2023-06-10T02:53:25;3.67;;;3.28;;
23044;SDS011;11690;51.716;23.066;2023-06-10T02:56:00;5.07;;;3.88;;
23044;SDS011;11690;51.716;23.066;2023-06-10T02:58:27;4.90;;;3.45;;
23044;SDS011;11690;51.716;23.066;2023-06-10T03:00:55;6.43;;;3.65;;
23044;SDS011;11690;51.716;23.066;2023-06-10T03:03:23;5.15;;;4.00;;
23044;SDS011;11690;51.716;23.066;2023-06-10T03:06:02;5.40;;;3.78;;
23044;SDS011;11690;51.716;23.066;2023-06-10T03:08:30;4.20;;;3.10;;
23044;SDS011;11690;51.716;23.066;2023-06-10T03:11:01;4.88;;;3.20;;
23044;SDS011;11690;51.716;23.066;2023-06-10T03:13:29;4.30;;;3.47;;
23044;SDS011;11690;51.716;23.066;2023-06-10T03:15:57;6.60;;;3.22;;
23044;SDS011;11690;51.716;23.066;2023-06-10T03:18:26;5.50;;;3.72;;
23044;SDS011;11690;51.716;23.066;2023-06-10T03:20:54;4.18;;;3.35;;
23044;SDS011;11690;51.716;23.066;2023-06-10T03:23:23;4.45;;;3.05;;
23044;SDS011;11690;51.716;23.066;2023-06-10T03:25:51;5.55;;;2.97;;
23044;SDS011;11690;51.716;23.066;2023-06-10T03:28:19;4.70;;;3.42;;
23044;SDS011;11690;51.716;23.066;2023-06-10T03:30:47;3.47;;;3.05;;
23044;SDS011;11690;51.716;23.066;2023-06-10T03:33:15;4.00;;;2.72;;
23044;SDS011;11690;51.716;23.066;2023-06-10T03:35:44;2.92;;;2.60;;
23044;SDS011;11690;51.716;23.066;2023-06-10T03:38:12;3.38;;;2.60;;
23044;SDS011;11690;51.716;23.066;2023-06-10T03:40:40;4.43;;;2.80;;
23044;SDS011;11690;51.716;23.066;2023-06-10T03:43:07;2.92;;;2.42;;
23044;SDS011;11690;51.716;23.066;2023-06-10T03:45:35;4.00;;;2.97;;
23044;SDS011;11690;51.716;23.066;2023-06-10T03:48:03;5.10;;;3.10;;
23044;SDS011;11690;51.716;23.066;2023-06-10T03:50:41;3.30;;;2.70;;
23044;SDS011;11690;51.716;23.066;2023-06-10T03:53:08;3.38;;;2.75;;
23044;SDS011;11690;51.716;23.066;2023-06-10T03:55:37;3.20;;;2.88;;
23044;SDS011;11690;51.716;23.066;2023-06-10T03:58:04;3.65;;;2.95;;
23044;SDS011;11690;51.716;23.066;2023-06-10T04:00:31;3.85;;;2.55;;
23044;SDS011;11690;51.716;23.066;2023-06-10T04:03:08;3.70;;;2.55;;
23044;SDS011;11690;51.716;23.066;2023-06-10T04:05:52;2.97;;;2.47;;
23044;SDS011;11690;51.716;23.066;2023-06-10T04:08:19;3.17;;;2.40;;
23044;SDS011;11690;51.716;23.066;2023-06-10T04:10:47;2.30;;;2.10;;
23044;SDS011;11690;51.716;23.066;2023-06-10T04:13:14;3.92;;;1.95;;
23044;SDS011;11690;51.716;23.066;2023-06-10T04:15:51;2.13;;;1.90;;
23044;SDS011;11690;51.716;23.066;2023-06-10T04:18:19;2.15;;;1.85;;
23044;SDS011;11690;51.716;23.066;2023-06-10T04:20:49;2.47;;;1.70;;
23044;SDS011;11690;51.716;23.066;2023-06-10T04:23:16;1.45;;;1.35;;
23044;SDS011;11690;51.716;23.066;2023-06-10T04:25:45;2.25;;;1.67;;
23044;SDS011;11690;51.716;23.066;2023-06-10T04:28:13;2.47;;;2.10;;
23044;SDS011;11690;51.716;23.066;2023-06-10T04:30:42;2.28;;;1.80;;
23044;SDS011;11690;51.716;23.066;2023-06-10T04:33:10;2.38;;;1.50;;
23044;SDS011;11690;51.716;23.066;2023-06-10T04:35:39;2.08;;;1.67;;
23044;SDS011;11690;51.716;23.066;2023-06-10T04:38:08;3.03;;;2.30;;
23044;SDS011;11690;51.716;23.066;2023-06-10T04:40:36;2.53;;;1.95;;
23044;SDS011;11690;51.716;23.066;2023-06-10T04:43:03;2.85;;;2.42;;
23044;SDS011;11690;51.716;23.066;2023-06-10T04:45:33;3.10;;;2.33;;
23044;SDS011;11690;51.716;23.066;2023-06-10T04:48:00;3.05;;;2.63;;
23044;SDS011;11690;51.716;23.066;2023-06-10T04:50:28;3.38;;;2.40;;
23044;SDS011;11690;51.716;23.066;2023-06-10T04:52:55;2.42;;;2.10;;
23044;SDS011;11690;51.716;23.066;2023-06-10T04:55:24;3.10;;;2.10;;
23044;SDS011;11690;51.716;23.066;2023-06-10T04:57:52;3.30;;;2.55;;
23044;SDS011;11690;51.716;23.066;2023-06-10T05:00:19;3.10;;;2.20;;
23044;SDS011;11690;51.716;23.066;2023-06-10T05:02:46;2.67;;;2.30;;
23044;SDS011;11690;51.716;23.066;2023-06-10T05:05:17;2.30;;;2.10;;
23044;SDS011;11690;51.716;23.066;2023-06-10T05:07:44;2.40;;;2.10;;
23044;SDS011;11690;51.716;23.066;2023-06-10T05:10:12;3.72;;;2.30;;
23044;SDS011;11690;51.716;23.066;2023-06-10T05:12:40;2.72;;;2.28;;
23044;SDS011;11690;51.716;23.066;2023-06-10T05:15:07;2.35;;;1.95;;
23044;SDS011;11690;51.716;23.066;2023-06-10T05:17:36;2.03;;;1.65;;
23044;SDS011;11690;51.716;23.066;2023-06-10T05:20:03;1.70;;;1.60;;
23044;SDS011;11690;51.716;23.066;2023-06-10T05:22:31;3.05;;;1.60;;
23044;SDS011;11690;51.716;23.066;2023-06-10T05:24:58;1.50;;;1.40;;
23044;SDS011;11690;51.716;23.066;2023-06-10T05:27:25;2.28;;;1.70;;
23044;SDS011;11690;51.716;23.066;2023-06-10T05:29:52;1.90;;;1.48;;
23044;SDS011;11690;51.716;23.066;2023-06-10T05:32:19;2.35;;;1.88;;
23044;SDS011;11690;51.716;23.066;2023-06-10T05:34:47;2.53;;;1.90;;
23044;SDS011;11690;51.716;23.066;2023-06-10T05:37:14;1.90;;;1.58;;
23044;SDS011;11690;51.716;23.066;2023-06-10T05:39:41;2.47;;;2.10;;
23044;SDS011;11690;51.716;23.066;2023-06-10T05:42:08;3.35;;;2.70;;
23044;SDS011;11690;51.716;23.066;2023-06-10T05:44:36;4.22;;;2.72;;
23044;SDS011;11690;51.716;23.066;2023-06-10T05:47:03;2.97;;;2.30;;
23044;SDS011;11690;51.716;23.066;2023-06-10T05:49:31;2.67;;;2.47;;
23044;SDS011;11690;51.716;23.066;2023-06-10T05:51:58;3.13;;;2.60;;
23044;SDS011;11690;51.716;23.066;2023-06-10T05:54:26;3.30;;;2.88;;
23044;SDS011;11690;51.716;23.066;2023-06-10T05:56:55;3.78;;;3.00;;
23044;SDS011;11690;51.716;23.066;2023-06-10T05:59:23;3.08;;;2.33;;
23044;SDS011;11690;51.716;23.066;2023-06-10T06:01:50;3.25;;;2.67;;
23044;SDS011;11690;51.716;23.066;2023-06-10T06:04:17;3.70;;;3.25;;
23044;SDS011;11690;51.716;23.066;2023-06-10T06:06:44;4.65;;;3.47;;
23044;SDS011;11690;51.716;23.066;2023-06-10T06:09:11;3.75;;;2.85;;
23044;SDS011;11690;51.716;23.066;2023-06-10T06:11:39;3.90;;;2.97;;
23044;SDS011;11690;51.716;23.066;2023-06-10T06:14:06;4.07;;;3.35;;
23044;SDS011;11690;51.716;23.066;2023-06-10T06:16:33;4.35;;;3.50;;
23044;SDS011;11690;51.716;23.066;2023-06-10T06:19:01;4.32;;;3.00;;
23044;SDS011;11690;51.716;23.066;2023-06-10T06:21:28;3.92;;;2.90;;
23044;SDS011;11690;51.716;23.066;2023-06-10T06:23:55;3.97;;;2.80;;
23044;SDS011;11690;51.716;23.066;2023-06-10T06:26:23;2.65;;;2.40;;
23044;SDS011;11690;51.716;23.066;2023-06-10T06:28:50;3.42;;;2.63;;
23044;SDS011;11690;51.716;23.066;2023-06-10T06:31:17;3.92;;;3.17;;
23044;SDS011;11690;51.716;23.066;2023-06-10T06:33:44;3.90;;;2.97;;
23044;SDS011;11690;51.716;23.066;2023-06-10T06:36:11;5.05;;;3.33;;
23044;SDS011;11690;51.716;23.066;2023-06-10T06:38:39;4.05;;;3.33;;
23044;SDS011;11690;51.716;23.066;2023-06-10T06:41:06;4.18;;;3.67;;
23044;SDS011;11690;51.716;23.066;2023-06-10T06:43:33;4.05;;;3.55;;
23044;SDS011;11690;51.716;23.066;2023-06-10T06:46:27;4.70;;;3.63;;
23044;SDS011;11690;51.716;23.066;2023-06-10T06:48:55;5.65;;;4.00;;
23044;SDS011;11690;51.716;23.066;2023-06-10T06:51:22;5.85;;;4.63;;
23044;SDS011;11690;51.716;23.066;2023-06-10T06:53:49;4.93;;;4.22;;
23044;SDS011;11690;51.716;23.066;2023-06-10T06:56:17;6.20;;;4.78;;
23044;SDS011;11690;51.716;23.066;2023-06-10T06:58:45;10.02;;;6.60;;
23044;SDS011;11690;51.716;23.066;2023-06-10T07:01:12;9.23;;;6.80;;
23044;SDS011;11690;51.716;23.066;2023-06-10T07:03:39;8.73;;;6.93;;
23044;SDS011;11690;51.716;23.066;2023-06-10T07:06:06;10.45;;;7.60;;
23044;SDS011;11690;51.716;23.066;2023-06-10T07:08:33;9.93;;;7.72;;
23044;SDS011;11690;51.716;23.066;2023-06-10T07:11:01;10.48;;;8.40;;
23044;SDS011;11690;51.716;23.066;2023-06-10T07:13:28;10.70;;;8.25;;
23044;SDS011;11690;51.716;23.066;2023-06-10T07:15:55;10.90;;;8.65;;
23044;SDS011;11690;51.716;23.066;2023-06-10T07:18:22;10.10;;;8.20;;
23044;SDS011;11690;51.716;23.066;2023-06-10T07:20:49;13.63;;;7.88;;
23044;SDS011;11690;51.716;23.066;2023-06-10T07:23:17;10.40;;;7.38;;
23044;SDS011;11690;51.716;23.066;2023-06-10T07:25:44;9.73;;;7.88;;
23044;SDS011;11690;51.716;23.066;2023-06-10T07:28:11;11.13;;;8.60;;
23044;SDS011;11690;51.716;23.066;2023-06-10T07:30:38;10.65;;;8.27;;
23044;SDS011;11690;51.716;23.066;2023-06-10T07:33:06;10.77;;;7.78;;
23044;SDS011;11690;51.716;23.066;2023-06-10T07:35:34;9.70;;;8.20;;
23044;SDS011;11690;51.716;23.066;2023-06-10T07:38:01;11.32;;;7.43;;
23044;SDS011;11690;51.716;23.066;2023-06-10T07:40:29;11.30;;;8.38;;
23044;SDS011;11690;51.716;23.066;2023-06-10T07:43:00;10.80;;;7.93;;
23044;SDS011;11690;51.716;23.066;2023-06-10T07:45:27;11.85;;;8.75;;
23044;SDS011;11690;51.716;23.066;2023-06-10T07:47:55;10.02;;;7.97;;
23044;SDS011;11690;51.716;23.066;2023-06-10T07:50:22;9.70;;;7.88;;
23044;SDS011;11690;51.716;23.066;2023-06-10T07:52:49;10.73;;;8.00;;
23044;SDS011;11690;51.716;23.066;2023-06-10T07:55:16;10.65;;;8.10;;
23044;SDS011;11690;51.716;23.066;2023-06-10T07:57:44;9.70;;;7.25;;
23044;SDS011;11690;51.716;23.066;2023-06-10T08:00:11;11.25;;;7.60;;
23044;SDS011;11690;51.716;23.066;2023-06-10T08:02:39;10.60;;;8.27;;
23044;SDS011;11690;51.716;23.066;2023-06-10T08:05:06;9.50;;;7.18;;
23044;SDS011;11690;51.716;23.066;2023-06-10T08:07:35;10.70;;;8.18;;
23044;SDS011;11690;51.716;23.066;2023-06-10T08:10:02;10.57;;;7.68;;
23044;SDS011;11690;51.716;23.066;2023-06-10T08:12:31;10.35;;;7.63;;
23044;SDS011;11690;51.716;23.066;2023-06-10T08:14:59;9.80;;;7.53;;
23044;SDS011;11690;51.716;23.066;2023-06-10T08:17:27;9.02;;;5.90;;
23044;SDS011;11690;51.716;23.066;2023-06-10T08:19:54;9.70;;;7.00;;
23044;SDS011;11690;51.716;23.066;2023-06-10T08:22:21;7.53;;;6.25;;
23044;SDS011;11690;51.716;23.066;2023-06-10T08:24:48;8.98;;;5.75;;
23044;SDS011;11690;51.716;23.066;2023-06-10T08:27:15;7.15;;;5.43;;
23044;SDS011;11690;51.716;23.066;2023-06-10T08:29:42;5.93;;;4.50;;
23044;SDS011;11690;51.716;23.066;2023-06-10T08:32:10;5.90;;;4.60;;
23044;SDS011;11690;51.716;23.066;2023-06-10T08:34:37;5.25;;;4.50;;
23044;SDS011;11690;51.716;23.066;2023-06-10T08:37:04;5.53;;;3.95;;
23044;SDS011;11690;51.716;23.066;2023-06-10T08:39:31;5.93;;;4.63;;
23044;SDS011;11690;51.716;23.066;2023-06-10T08:42:17;6.13;;;4.20;;
23044;SDS011;11690;51.716;23.066;2023-06-10T08:44:50;6.85;;;5.28;;
23044;SDS011;11690;51.716;23.066;2023-06-10T08:47:22;6.15;;;4.75;;
23044;SDS011;11690;51.716;23.066;2023-06-10T08:49:51;5.22;;;4.38;;
23044;SDS011;11690;51.716;23.066;2023-06-10T08:52:23;4.95;;;4.15;;
23044;SDS011;11690;51.716;23.066;2023-06-10T08:54:57;6.13;;;4.40;;
23044;SDS011;11690;51.716;23.066;2023-06-10T08:57:26;4.97;;;4.47;;
23044;SDS011;11690;51.716;23.066;2023-06-10T08:59:53;5.57;;;4.40;;
23044;SDS011;11690;51.716;23.066;2023-06-10T09:02:24;5.30;;;4.10;;
23044;SDS011;11690;51.716;23.066;2023-06-10T09:04:51;4.63;;;3.92;;
23044;SDS011;11690;51.716;23.066;2023-06-10T09:07:19;5.15;;;4.53;;
23044;SDS011;11690;51.716;23.066;2023-06-10T09:09:46;4.50;;;4.10;;
23044;SDS011;11690;51.716;23.066;2023-06-10T09:12:13;5.50;;;3.97;;
23044;SDS011;11690;51.716;23.066;2023-06-10T09:14:41;7.40;;;3.53;;
23044;SDS011;11690;51.716;23.066;2023-06-10T09:17:10;4.10;;;3.33;;
23044;SDS011;11690;51.716;23.066;2023-06-10T09:19:38;4.00;;;3.30;;
23044;SDS011;11690;51.716;23.066;2023-06-10T09:22:06;3.58;;;3.17;;
23044;SDS011;11690;51.716;23.066;2023-06-10T09:24:32;3.60;;;3.22;;
23044;SDS011;11690;51.716;23.066;2023-06-10T09:27:03;3.95;;;3.28;;
23044;SDS011;11690;51.716;23.066;2023-06-10T09:32:19;3.60;;;2.85;;
23044;SDS011;11690;51.716;23.066;2023-06-10T09:34:47;3.17;;;2.72;;
23044;SDS011;11690;51.716;23.066;2023-06-10T09:37:21;4.28;;;3.47;;
23044;SDS011;11690;51.716;23.066;2023-06-10T09:40:05;4.43;;;3.30;;
23044;SDS011;11690;51.716;23.066;2023-06-10T09:42:34;3.03;;;2.72;;
23044;SDS011;11690;51.716;23.066;2023-06-10T09:45:06;3.92;;;3.35;;
23044;SDS011;11690;51.716;23.066;2023-06-10T09:47:34;5.32;;;3.55;;
23044;SDS011;11690;51.716;23.066;2023-06-10T09:50:01;4.35;;;3.15;;
23044;SDS011;11690;51.716;23.066;2023-06-10T09:52:29;3.80;;;2.65;;
23044;SDS011;11690;51.716;23.066;2023-06-10T09:55:00;5.60;;;4.70;;
23044;SDS011;11690;51.716;23.066;2023-06-10T09:57:32;5.90;;;4.72;;
23044;SDS011;11690;51.716;23.066;2023-06-10T10:00:03;5.80;;;4.68;;
23044;SDS011;11690;51.716;23.066;2023-06-10T10:02:53;6.28;;;4.50;;
23044;SDS011;11690;51.716;23.066;2023-06-10T10:05:21;5.45;;;4.35;;
23044;SDS011;11690;51.716;23.066;2023-06-10T10:07:50;5.50;;;4.63;;
23044;SDS011;11690;51.716;23.066;2023-06-10T10:10:18;6.85;;;5.00;;
23044;SDS011;11690;51.716;23.066;2023-06-10T10:12:47;7.72;;;5.13;;
23044;SDS011;11690;51.716;23.066;2023-06-10T10:15:15;8.40;;;5.35;;
23044;SDS011;11690;51.716;23.066;2023-06-10T10:17:56;7.75;;;5.63;;
23044;SDS011;11690;51.716;23.066;2023-06-10T10:20:29;6.35;;;5.00;;
23044;SDS011;11690;51.716;23.066;2023-06-10T10:22:57;8.32;;;6.20;;
23044;SDS011;11690;51.716;23.066;2023-06-10T10:25:58;9.07;;;5.78;;
23044;SDS011;11690;51.716;23.066;2023-06-10T10:28:20;6.63;;;5.10;;
23044;SDS011;11690;51.716;23.066;2023-06-10T10:30:53;5.95;;;4.75;;
23044;SDS011;11690;51.716;23.066;2023-06-10T10:33:31;7.10;;;5.18;;
23044;SDS011;11690;51.716;23.066;2023-06-10T10:36:07;6.85;;;4.90;;
23044;SDS011;11690;51.716;23.066;2023-06-10T10:38:35;6.50;;;4.85;;
23044;SDS011;11690;51.716;23.066;2023-06-10T10:41:02;5.82;;;5.07;;
23044;SDS011;11690;51.716;23.066;2023-06-10T10:43:31;6.97;;;5.22;;
23044;SDS011;11690;51.716;23.066;2023-06-10T10:45:59;7.13;;;5.55;;
23044;SDS011;11690;51.716;23.066;2023-06-10T10:48:33;7.88;;;6.07;;
23044;SDS011;11690;51.716;23.066;2023-06-10T10:51:02;8.07;;;6.38;;
23044;SDS011;11690;51.716;23.066;2023-06-10T10:53:30;9.10;;;5.80;;
23044;SDS011;11690;51.716;23.066;2023-06-10T10:58:31;11.07;;;6.90;;
23044;SDS011;11690;51.716;23.066;2023-06-10T11:00:58;7.32;;;6.05;;
23044;SDS011;11690;51.716;23.066;2023-06-10T11:03:29;7.07;;;5.32;;
23044;SDS011;11690;51.716;23.066;2023-06-10T11:05:59;5.38;;;4.80;;
23044;SDS011;11690;51.716;23.066;2023-06-10T11:11:00;5.90;;;4.78;;
23044;SDS011;11690;51.716;23.066;2023-06-10T11:13:27;5.88;;;4.90;;
23044;SDS011;11690;51.716;23.066;2023-06-10T11:15:57;9.95;;;5.57;;
23044;SDS011;11690;51.716;23.066;2023-06-10T11:18:29;5.95;;;4.68;;
23044;SDS011;11690;51.716;23.066;2023-06-10T11:20:59;7.22;;;5.57;;
23044;SDS011;11690;51.716;23.066;2023-06-10T11:29:00;7.00;;;5.35;;
23044;SDS011;11690;51.716;23.066;2023-06-10T11:31:38;7.93;;;6.03;;
23044;SDS011;11690;51.716;23.066;2023-06-10T11:34:06;9.00;;;6.38;;
23044;SDS011;11690;51.716;23.066;2023-06-10T11:36:36;7.78;;;6.15;;
23044;SDS011;11690;51.716;23.066;2023-06-10T11:39:07;8.32;;;6.10;;
23044;SDS011;11690;51.716;23.066;2023-06-10T11:41:34;9.05;;;6.25;;
23044;SDS011;11690;51.716;23.066;2023-06-10T11:44:04;7.65;;;6.82;;
23044;SDS011;11690;51.716;23.066;2023-06-10T11:46:34;10.27;;;6.68;;
23044;SDS011;11690;51.716;23.066;2023-06-10T11:49:02;9.75;;;6.80;;
23044;SDS011;11690;51.716;23.066;2023-06-10T11:51:33;7.93;;;6.63;;
23044;SDS011;11690;51.716;23.066;2023-06-10T11:54:08;9.48;;;7.10;;
23044;SDS011;11690;51.716;23.066;2023-06-10T11:56:35;8.88;;;6.93;;
23044;SDS011;11690;51.716;23.066;2023-06-10T11:59:03;9.00;;;7.63;;
23044;SDS011;11690;51.716;23.066;2023-06-10T12:01:37;9.20;;;6.78;;
23044;SDS011;11690;51.716;23.066;2023-06-10T12:04:14;8.27;;;6.78;;
23044;SDS011;11690;51.716;23.066;2023-06-10T12:06:44;9.00;;;6.30;;
23044;SDS011;11690;51.716;23.066;2023-06-10T12:09:25;8.55;;;6.97;;
23044;SDS011;11690;51.716;23.066;2023-06-10T12:11:57;8.35;;;5.95;;
23044;SDS011;11690;51.716;23.066;2023-06-10T12:20:05;8.75;;;6.60;;
23044;SDS011;11690;51.716;23.066;2023-06-10T12:22:37;8.82;;;6.47;;
23044;SDS011;11690;51.716;23.066;2023-06-10T12:25:04;10.05;;;7.07;;
23044;SDS011;11690;51.716;23.066;2023-06-10T12:27:34;9.32;;;7.20;;
23044;SDS011;11690;51.716;23.066;2023-06-10T12:30:03;9.18;;;6.22;;
23044;SDS011;11690;51.716;23.066;2023-06-10T12:32:42;11.85;;;6.75;;
23044;SDS011;11690;51.716;23.066;2023-06-10T12:35:11;7.57;;;6.03;;
23044;SDS011;11690;51.716;23.066;2023-06-10T12:37:40;9.00;;;6.40;;
23044;SDS011;11690;51.716;23.066;2023-06-10T12:40:10;7.30;;;5.82;;
23044;SDS011;11690;51.716;23.066;2023-06-10T12:42:38;7.38;;;6.38;;
23044;SDS011;11690;51.716;23.066;2023-06-10T12:45:05;8.77;;;6.40;;
23044;SDS011;11690;51.716;23.066;2023-06-10T12:47:37;7.95;;;6.22;;
23044;SDS011;11690;51.716;23.066;2023-06-10T12:50:08;9.15;;;6.55;;
23044;SDS011;11690;51.716;23.066;2023-06-10T12:52:36;8.18;;;6.50;;
23044;SDS011;11690;51.716;23.066;2023-06-10T12:55:03;7.85;;;6.38;;
23044;SDS011;11690;51.716;23.066;2023-06-10T12:57:31;10.13;;;7.22;;
23044;SDS011;11690;51.716;23.066;2023-06-10T12:59:58;8.38;;;6.57;;
23044;SDS011;11690;51.716;23.066;2023-06-10T13:02:31;7.47;;;6.20;;
23044;SDS011;11690;51.716;23.066;2023-06-10T13:04:59;8.05;;;6.25;;
23044;SDS011;11690;51.716;23.066;2023-06-10T13:07:26;6.25;;;5.55;;
23044;SDS011;11690;51.716;23.066;2023-06-10T13:09:53;8.27;;;6.13;;
23044;SDS011;11690;51.716;23.066;2023-06-10T13:12:20;6.72;;;5.45;;
23044;SDS011;11690;51.716;23.066;2023-06-10T13:15:04;6.72;;;5.53;;
23044;SDS011;11690;51.716;23.066;2023-06-10T13:17:31;7.55;;;5.90;;
23044;SDS011;11690;51.716;23.066;2023-06-10T13:20:04;6.70;;;5.18;;
23044;SDS011;11690;51.716;23.066;2023-06-10T13:22:33;7.10;;;5.28;;
23044;SDS011;11690;51.716;23.066;2023-06-10T13:25:02;5.57;;;4.70;;
23044;SDS011;11690;51.716;23.066;2023-06-10T13:27:30;6.07;;;4.82;;
23044;SDS011;11690;51.716;23.066;2023-06-10T13:29:57;6.95;;;4.45;;
23044;SDS011;11690;51.716;23.066;2023-06-10T13:32:24;4.47;;;3.70;;
23044;SDS011;11690;51.716;23.066;2023-06-10T13:34:52;5.85;;;4.00;;
23044;SDS011;11690;51.716;23.066;2023-06-10T13:37:19;4.25;;;3.38;;
23044;SDS011;11690;51.716;23.066;2023-06-10T13:39:47;3.40;;;3.05;;
23044;SDS011;11690;51.716;23.066;2023-06-10T13:42:17;4.53;;;3.30;;
23044;SDS011;11690;51.716;23.066;2023-06-10T13:44:44;3.90;;;2.92;;
23044;SDS011;11690;51.716;23.066;2023-06-10T13:47:12;4.30;;;3.35;;
23044;SDS011;11690;51.716;23.066;2023-06-10T13:49:39;5.10;;;3.08;;
23044;SDS011;11690;51.716;23.066;2023-06-10T13:52:07;3.45;;;2.80;;
23044;SDS011;11690;51.716;23.066;2023-06-10T13:54:34;3.45;;;2.80;;
23044;SDS011;11690;51.716;23.066;2023-06-10T13:57:04;5.05;;;3.42;;
23044;SDS011;11690;51.716;23.066;2023-06-10T13:59:32;5.47;;;3.97;;
23044;SDS011;11690;51.716;23.066;2023-06-10T14:01:59;4.70;;;3.45;;
23044;SDS011;11690;51.716;23.066;2023-06-10T14:04:27;4.22;;;3.72;;
23044;SDS011;11690;51.716;23.066;2023-06-10T14:06:54;5.65;;;3.75;;
23044;SDS011;11690;51.716;23.066;2023-06-10T14:09:22;4.35;;;3.88;;
23044;SDS011;11690;51.716;23.066;2023-06-10T14:11:49;4.43;;;3.58;;
23044;SDS011;11690;51.716;23.066;2023-06-10T14:14:16;3.80;;;3.35;;
23044;SDS011;11690;51.716;23.066;2023-06-10T14:16:43;4.13;;;3.58;;
23044;SDS011;11690;51.716;23.066;2023-06-10T14:19:11;4.35;;;3.50;;
23044;SDS011;11690;51.716;23.066;2023-06-10T14:21:38;4.13;;;3.33;;
23044;SDS011;11690;51.716;23.066;2023-06-10T14:24:05;5.28;;;3.60;;
23044;SDS011;11690;51.716;23.066;2023-06-10T14:26:32;4.32;;;3.60;;
23044;SDS011;11690;51.716;23.066;2023-06-10T14:29:00;4.15;;;3.60;;
23044;SDS011;11690;51.716;23.066;2023-06-10T14:31:29;4.88;;;3.70;;
23044;SDS011;11690;51.716;23.066;2023-06-10T14:33:56;6.32;;;3.40;;
23044;SDS011;11690;51.716;23.066;2023-06-10T14:36:23;4.07;;;3.40;;
23044;SDS011;11690;51.716;23.066;2023-06-10T14:38:50;6.22;;;4.07;;
23044;SDS011;11690;51.716;23.066;2023-06-10T14:41:18;4.57;;;3.55;;
23044;SDS011;11690;51.716;23.066;2023-06-10T14:43:45;4.82;;;3.75;;
23044;SDS011;11690;51.716;23.066;2023-06-10T14:46:12;3.70;;;3.30;;
23044;SDS011;11690;51.716;23.066;2023-06-10T14:48:39;2.95;;;2.63;;
23044;SDS011;11690;51.716;23.066;2023-06-10T14:51:06;3.95;;;3.00;;
23044;SDS011;11690;51.716;23.066;2023-06-10T14:53:34;3.85;;;2.97;;
23044;SDS011;11690;51.716;23.066;2023-06-10T14:56:01;2.58;;;2.38;;
23044;SDS011;11690;51.716;23.066;2023-06-10T14:58:29;3.42;;;2.67;;
23044;SDS011;11690;51.716;23.066;2023-06-10T15:00:56;2.88;;;2.60;;
23044;SDS011;11690;51.716;23.066;2023-06-10T15:03:23;4.28;;;3.25;;
23044;SDS011;11690;51.716;23.066;2023-06-10T15:05:50;3.17;;;2.70;;